sensor_id;sensor_type;location;lat;lon;timestamp;temperature;humidity
38582;DHT22;24349;53.720;10.014;2022-10-16T07:11:06;15.70;99.90
38582;DHT22;24349;53.720;10.014;2022-10-16T07:13:36;16.00;99.90
38582;DHT22;24349;53.720;10.014;2022-10-16T07:18:35;16.20;99.90
38582;DHT22;24349;53.720;10.014;2022-10-16T07:21:05;15.80;99.90
38582;DHT22;24349;53.720;10.014;2022-10-16T07:23:31;15.70;99.90
38582;DHT22;24349;53.720;10.014;2022-10-16T07:25:57;15.40;99.90
38582;DHT22;24349;53.720;10.014;2022-10-16T07:28:23;15.30;99.90
38582;DHT22;24349;53.720;10.014;2022-10-16T07:31:11;15.20;99.90
38582;DHT22;24349;53.720;10.014;2022-10-16T07:33:57;15.10;99.90
38582;DHT22;24349;53.720;10.014;2022-10-16T07:36:42;15.20;99.90
38582;DHT22;24349;53.720;10.014;2022-10-16T07:39:08;15.30;99.90
38582;DHT22;24349;53.720;10.014;2022-10-16T07:41:34;15.40;99.90
38582;DHT22;24349;53.720;10.014;2022-10-16T07:44:02;15.50;99.90
38582;DHT22;24349;53.720;10.014;2022-10-16T07:46:29;16.30;99.90
38582;DHT22;24349;53.720;10.014;2022-10-16T07:48:55;16.70;99.90
38582;DHT22;24349;53.720;10.014;2022-10-16T07:51:22;16.80;99.90
38582;DHT22;24349;53.720;10.014;2022-10-16T07:53:49;16.80;99.90
38582;DHT22;24349;53.720;10.014;2022-10-16T07:56:16;16.90;99.90
38582;DHT22;24349;53.720;10.014;2022-10-16T07:58:42;16.70;99.90
38582;DHT22;24349;53.720;10.014;2022-10-16T08:01:10;16.70;99.90
38582;DHT22;24349;53.720;10.014;2022-10-16T08:03:36;16.80;99.90
38582;DHT22;24349;53.720;10.014;2022-10-16T08:06:02;16.50;99.90
38582;DHT22;24349;53.720;10.014;2022-10-16T08:08:29;16.20;99.90
38582;DHT22;24349;53.720;10.014;2022-10-16T08:10:55;16.00;99.90
38582;DHT22;24349;53.720;10.014;2022-10-16T08:13:21;15.90;99.90
38582;DHT22;24349;53.720;10.014;2022-10-16T08:15:46;15.70;99.90
38582;DHT22;24349;53.720;10.014;2022-10-16T08:18:14;15.50;99.90
38582;DHT22;24349;53.720;10.014;2022-10-16T08:20:40;15.70;99.90
38582;DHT22;24349;53.720;10.014;2022-10-16T08:23:07;15.80;99.90
38582;DHT22;24349;53.720;10.014;2022-10-16T08:25:35;15.80;99.90
38582;DHT22;24349;53.720;10.014;2022-10-16T08:28:03;16.30;99.90
38582;DHT22;24349;53.720;10.014;2022-10-16T08:30:29;16.80;99.90
38582;DHT22;24349;53.720;10.014;2022-10-16T08:32:55;17.10;99.90
38582;DHT22;24349;53.720;10.014;2022-10-16T08:35:20;17.30;99.90
38582;DHT22;24349;53.720;10.014;2022-10-16T08:37:46;17.90;99.90
38582;DHT22;24349;53.720;10.014;2022-10-16T08:40:27;18.10;99.90
38582;DHT22;24349;53.720;10.014;2022-10-16T08:48:48;18.10;99.90
38582;DHT22;24349;53.720;10.014;2022-10-16T08:51:31;17.40;99.90
38582;DHT22;24349;53.720;10.014;2022-10-16T08:54:03;17.30;99.90
38582;DHT22;24349;53.720;10.014;2022-10-16T08:56:29;17.90;99.90
38582;DHT22;24349;53.720;10.014;2022-10-16T08:58:54;18.30;99.90
38582;DHT22;24349;53.720;10.014;2022-10-16T09:01:22;18.60;99.90
38582;DHT22;24349;53.720;10.014;2022-10-16T09:04:02;18.40;99.90
38582;DHT22;24349;53.720;10.014;2022-10-16T09:06:56;18.10;99.90
38582;DHT22;24349;53.720;10.014;2022-10-16T09:12:28;18.30;99.90
38582;DHT22;24349;53.720;10.014;2022-10-16T09:15:14;18.40;99.90
38582;DHT22;24349;53.720;10.014;2022-10-16T09:18:09;18.00;99.90
38582;DHT22;24349;53.720;10.014;2022-10-16T09:23:10;19.00;99.90
38582;DHT22;24349;53.720;10.014;2022-10-16T09:25:39;19.40;99.90
38582;DHT22;24349;53.720;10.014;2022-10-16T09:28:07;18.90;99.90
38582;DHT22;24349;53.720;10.014;2022-10-16T09:30:33;18.90;99.90
38582;DHT22;24349;53.720;10.014;2022-10-16T09:32:59;19.00;99.90
38582;DHT22;24349;53.720;10.014;2022-10-16T09:35:46;19.20;99.90
38582;DHT22;24349;53.720;10.014;2022-10-16T09:38:30;19.70;99.90
38582;DHT22;24349;53.720;10.014;2022-10-16T09:40:58;19.80;99.90
38582;DHT22;24349;53.720;10.014;2022-10-16T09:46:21;19.50;99.90
38582;DHT22;24349;53.720;10.014;2022-10-16T09:48:52;19.60;99.90
38582;DHT22;24349;53.720;10.014;2022-10-16T09:51:30;19.60;99.90
38582;DHT22;24349;53.720;10.014;2022-10-16T09:53:59;19.50;99.90
38582;DHT22;24349;53.720;10.014;2022-10-16T09:56:28;19.30;99.90
38582;DHT22;24349;53.720;10.014;2022-10-16T09:58:57;19.60;99.90
38582;DHT22;24349;53.720;10.014;2022-10-16T10:01:44;19.70;99.90
38582;DHT22;24349;53.720;10.014;2022-10-16T10:04:11;20.10;99.90
38582;DHT22;24349;53.720;10.014;2022-10-16T10:06:46;19.80;99.90
38582;DHT22;24349;53.720;10.014;2022-10-16T10:14:35;19.80;99.90
38582;DHT22;24349;53.720;10.014;2022-10-16T10:17:19;19.50;99.90
38582;DHT22;24349;53.720;10.014;2022-10-16T10:35:52;21.00;99.90
38582;DHT22;24349;53.720;10.014;2022-10-16T10:41:11;20.70;99.90
38582;DHT22;24349;53.720;10.014;2022-10-16T10:52:10;18.40;99.90
38582;DHT22;24349;53.720;10.014;2022-10-16T10:55:03;18.60;99.90
38582;DHT22;24349;53.720;10.014;2022-10-16T11:00:57;20.20;99.90
38582;DHT22;24349;53.720;10.014;2022-10-16T11:05:51;20.80;99.90
38582;DHT22;24349;53.720;10.014;2022-10-16T11:08:18;21.10;99.90
38582;DHT22;24349;53.720;10.014;2022-10-16T11:10:47;21.20;99.90
38582;DHT22;24349;53.720;10.014;2022-10-16T11:15:55;20.70;99.90
38582;DHT22;24349;53.720;10.014;2022-10-16T11:18:49;21.20;99.90
38582;DHT22;24349;53.720;10.014;2022-10-16T11:21:19;21.40;99.90
38582;DHT22;24349;53.720;10.014;2022-10-16T11:23:58;21.30;99.90
38582;DHT22;24349;53.720;10.014;2022-10-16T11:26:30;21.40;99.90
38582;DHT22;24349;53.720;10.014;2022-10-16T11:28:59;20.90;99.90
38582;DHT22;24349;53.720;10.014;2022-10-16T11:31:36;20.70;99.90
38582;DHT22;24349;53.720;10.014;2022-10-16T11:34:08;20.60;99.90
38582;DHT22;24349;53.720;10.014;2022-10-16T11:36:51;19.60;99.90
38582;DHT22;24349;53.720;10.014;2022-10-16T11:39:27;19.20;99.90
38582;DHT22;24349;53.720;10.014;2022-10-16T11:41:55;19.50;99.90
38582;DHT22;24349;53.720;10.014;2022-10-16T11:44:57;19.40;99.90
38582;DHT22;24349;53.720;10.014;2022-10-16T11:50:39;19.00;99.90
38582;DHT22;24349;53.720;10.014;2022-10-16T11:53:16;18.50;99.90
38582;DHT22;24349;53.720;10.014;2022-10-16T11:55:45;18.70;99.90
38582;DHT22;24349;53.720;10.014;2022-10-16T11:58:30;18.60;99.90
38582;DHT22;24349;53.720;10.014;2022-10-16T12:03:58;18.80;99.90
38582;DHT22;24349;53.720;10.014;2022-10-16T12:06:34;19.60;99.90
38582;DHT22;24349;53.720;10.014;2022-10-16T12:09:01;19.20;99.90
38582;DHT22;24349;53.720;10.014;2022-10-16T12:16:32;20.00;99.90
38582;DHT22;24349;53.720;10.014;2022-10-16T12:19:13;20.50;99.90
38582;DHT22;24349;53.720;10.014;2022-10-16T12:21:39;21.40;99.90
38582;DHT22;24349;53.720;10.014;2022-10-16T12:24:05;21.20;99.90
38582;DHT22;24349;53.720;10.014;2022-10-16T12:26:33;22.10;99.90
38582;DHT22;24349;53.720;10.014;2022-10-16T12:29:13;22.00;99.90
38582;DHT22;24349;53.720;10.014;2022-10-16T12:31:44;21.30;99.90
38582;DHT22;24349;53.720;10.014;2022-10-16T12:37:21;20.60;99.90
38582;DHT22;24349;53.720;10.014;2022-10-16T12:39:49;20.90;99.90
38582;DHT22;24349;53.720;10.014;2022-10-16T12:42:31;21.30;99.90
38582;DHT22;24349;53.720;10.014;2022-10-16T12:44:57;21.90;99.90
38582;DHT22;24349;53.720;10.014;2022-10-16T12:49:54;21.90;99.90
38582;DHT22;24349;53.720;10.014;2022-10-16T12:52:26;21.70;99.90
38582;DHT22;24349;53.720;10.014;2022-10-16T12:54:56;21.00;99.90
38582;DHT22;24349;53.720;10.014;2022-10-16T13:00:54;20.50;99.90
38582;DHT22;24349;53.720;10.014;2022-10-16T13:03:57;19.70;99.90
38582;DHT22;24349;53.720;10.014;2022-10-16T13:17:49;21.60;99.90
38582;DHT22;24349;53.720;10.014;2022-10-16T13:26:18;22.50;99.90
38582;DHT22;24349;53.720;10.014;2022-10-16T13:28:47;23.00;99.90
38582;DHT22;24349;53.720;10.014;2022-10-16T13:31:17;23.50;99.90
38582;DHT22;24349;53.720;10.014;2022-10-16T13:33:47;22.40;99.90
38582;DHT22;24349;53.720;10.014;2022-10-16T13:36:24;22.30;99.90
38582;DHT22;24349;53.720;10.014;2022-10-16T13:41:38;22.80;99.90
38582;DHT22;24349;53.720;10.014;2022-10-16T13:44:04;22.20;99.90
38582;DHT22;24349;53.720;10.014;2022-10-16T13:46:30;21.50;99.90
38582;DHT22;24349;53.720;10.014;2022-10-16T13:49:13;21.20;99.90
38582;DHT22;24349;53.720;10.014;2022-10-16T13:51:39;21.50;99.90
38582;DHT22;24349;53.720;10.014;2022-10-16T13:54:04;20.70;99.90
38582;DHT22;24349;53.720;10.014;2022-10-16T13:56:32;19.70;99.90
38582;DHT22;24349;53.720;10.014;2022-10-16T13:59:05;19.20;99.90
38582;DHT22;24349;53.720;10.014;2022-10-16T14:01:33;19.20;99.90
38582;DHT22;24349;53.720;10.014;2022-10-16T14:04:04;18.80;99.90
38582;DHT22;24349;53.720;10.014;2022-10-16T14:06:31;18.70;99.90
38582;DHT22;24349;53.720;10.014;2022-10-16T14:09:21;18.70;99.90
38582;DHT22;24349;53.720;10.014;2022-10-16T14:11:55;18.70;99.90
38582;DHT22;24349;53.720;10.014;2022-10-16T14:14:22;18.80;99.90
38582;DHT22;24349;53.720;10.014;2022-10-16T14:16:48;18.80;99.90
38582;DHT22;24349;53.720;10.014;2022-10-16T14:19:24;18.80;99.90
38582;DHT22;24349;53.720;10.014;2022-10-16T14:21:51;18.80;99.90
38582;DHT22;24349;53.720;10.014;2022-10-16T14:24:27;18.70;99.90
38582;DHT22;24349;53.720;10.014;2022-10-16T14:26:57;18.60;99.90
38582;DHT22;24349;53.720;10.014;2022-10-16T14:29:24;18.80;99.90
38582;DHT22;24349;53.720;10.014;2022-10-16T14:31:58;18.70;99.90
38582;DHT22;24349;53.720;10.014;2022-10-16T14:34:36;19.00;99.90
38582;DHT22;24349;53.720;10.014;2022-10-16T14:37:26;19.00;99.90
38582;DHT22;24349;53.720;10.014;2022-10-16T14:39:52;18.90;99.90
38582;DHT22;24349;53.720;10.014;2022-10-16T14:42:21;18.80;99.90
38582;DHT22;24349;53.720;10.014;2022-10-16T14:44:50;18.60;99.90
38582;DHT22;24349;53.720;10.014;2022-10-16T14:47:20;18.50;99.90
38582;DHT22;24349;53.720;10.014;2022-10-16T14:49:49;18.60;99.90
38582;DHT22;24349;53.720;10.014;2022-10-16T14:52:15;18.80;99.90
38582;DHT22;24349;53.720;10.014;2022-10-16T14:54:41;20.20;99.90
38582;DHT22;24349;53.720;10.014;2022-10-16T14:57:18;21.40;99.90
38582;DHT22;24349;53.720;10.014;2022-10-16T14:59:45;22.20;99.90
38582;DHT22;24349;53.720;10.014;2022-10-16T15:04:46;20.10;99.90
38582;DHT22;24349;53.720;10.014;2022-10-16T15:07:11;20.70;99.90
38582;DHT22;24349;53.720;10.014;2022-10-16T15:09:37;21.70;99.90
38582;DHT22;24349;53.720;10.014;2022-10-16T15:12:02;22.90;99.90
38582;DHT22;24349;53.720;10.014;2022-10-16T15:14:28;23.20;99.90
38582;DHT22;24349;53.720;10.014;2022-10-16T15:16:54;22.80;99.90
38582;DHT22;24349;53.720;10.014;2022-10-16T15:19:19;22.90;99.90
38582;DHT22;24349;53.720;10.014;2022-10-16T15:21:45;22.70;99.90
38582;DHT22;24349;53.720;10.014;2022-10-16T15:24:12;22.60;99.90
38582;DHT22;24349;53.720;10.014;2022-10-16T15:26:39;22.10;99.90
38582;DHT22;24349;53.720;10.014;2022-10-16T15:29:04;20.60;99.90
38582;DHT22;24349;53.720;10.014;2022-10-16T15:31:30;19.00;99.90
38582;DHT22;24349;53.720;10.014;2022-10-16T15:33:56;18.40;99.90
38582;DHT22;24349;53.720;10.014;2022-10-16T15:36:32;18.10;99.90
38582;DHT22;24349;53.720;10.014;2022-10-16T15:39:19;17.80;99.90
38582;DHT22;24349;53.720;10.014;2022-10-16T15:41:46;17.70;99.90
38582;DHT22;24349;53.720;10.014;2022-10-16T15:44:16;17.50;99.90
38582;DHT22;24349;53.720;10.014;2022-10-16T15:46:43;17.30;99.90
38582;DHT22;24349;53.720;10.014;2022-10-16T15:49:09;17.20;99.90
38582;DHT22;24349;53.720;10.014;2022-10-16T15:51:38;17.00;99.90
38582;DHT22;24349;53.720;10.014;2022-10-16T15:54:04;16.90;99.90
38582;DHT22;24349;53.720;10.014;2022-10-16T15:56:30;16.70;99.90
38582;DHT22;24349;53.720;10.014;2022-10-16T15:58:59;16.70;99.90
38582;DHT22;24349;53.720;10.014;2022-10-16T16:01:26;16.70;99.90
38582;DHT22;24349;53.720;10.014;2022-10-16T16:03:53;16.60;99.90
38582;DHT22;24349;53.720;10.014;2022-10-16T16:06:24;16.50;99.90
38582;DHT22;24349;53.720;10.014;2022-10-16T16:09:29;16.50;99.90
38582;DHT22;24349;53.720;10.014;2022-10-16T16:12:35;16.50;99.90
38582;DHT22;24349;53.720;10.014;2022-10-16T16:16:07;16.50;99.90
38582;DHT22;24349;53.720;10.014;2022-10-16T16:19:33;16.40;99.90
38582;DHT22;24349;53.720;10.014;2022-10-16T16:29:19;15.90;99.90
38582;DHT22;24349;53.720;10.014;2022-10-16T16:31:45;15.80;99.90
38582;DHT22;24349;53.720;10.014;2022-10-16T16:34:18;15.70;99.90
38582;DHT22;24349;53.720;10.014;2022-10-16T16:36:44;15.60;99.90
38582;DHT22;24349;53.720;10.014;2022-10-16T16:39:10;15.50;99.90
38582;DHT22;24349;53.720;10.014;2022-10-16T16:41:49;15.40;99.90
38582;DHT22;24349;53.720;10.014;2022-10-16T16:44:37;15.40;99.90
38582;DHT22;24349;53.720;10.014;2022-10-16T16:54:51;15.10;99.90
38582;DHT22;24349;53.720;10.014;2022-10-16T16:57:48;14.80;99.90
38582;DHT22;24349;53.720;10.014;2022-10-16T17:00:20;14.60;99.90
38582;DHT22;24349;53.720;10.014;2022-10-16T17:02:51;14.60;99.90
38582;DHT22;24349;53.720;10.014;2022-10-16T17:05:22;14.50;99.90
38582;DHT22;24349;53.720;10.014;2022-10-16T17:07:53;14.40;99.90
38582;DHT22;24349;53.720;10.014;2022-10-16T17:10:22;14.40;99.90
38582;DHT22;24349;53.720;10.014;2022-10-16T17:12:54;14.30;99.90
38582;DHT22;24349;53.720;10.014;2022-10-16T17:18:29;14.00;99.90
38582;DHT22;24349;53.720;10.014;2022-10-16T17:21:04;14.00;99.90
38582;DHT22;24349;53.720;10.014;2022-10-16T17:23:32;14.00;99.90
38582;DHT22;24349;53.720;10.014;2022-10-16T17:26:34;13.90;99.90
38582;DHT22;24349;53.720;10.014;2022-10-16T17:29:07;13.90;99.90
38582;DHT22;24349;53.720;10.014;2022-10-16T17:31:38;13.80;99.90
38582;DHT22;24349;53.720;10.014;2022-10-16T17:34:10;13.80;99.90
38582;DHT22;24349;53.720;10.014;2022-10-16T17:36:38;13.70;99.90
38582;DHT22;24349;53.720;10.014;2022-10-16T17:39:12;13.60;99.90
38582;DHT22;24349;53.720;10.014;2022-10-16T17:42:14;13.70;99.90
38582;DHT22;24349;53.720;10.014;2022-10-16T17:45:02;13.60;99.90
38582;DHT22;24349;53.720;10.014;2022-10-16T17:47:57;13.50;99.90
38582;DHT22;24349;53.720;10.014;2022-10-16T17:50:26;13.40;99.90
38582;DHT22;24349;53.720;10.014;2022-10-16T17:52:53;13.20;99.90
38582;DHT22;24349;53.720;10.014;2022-10-16T17:55:23;13.20;99.90
38582;DHT22;24349;53.720;10.014;2022-10-16T17:58:09;13.20;99.90
38582;DHT22;24349;53.720;10.014;2022-10-16T18:00:36;13.00;99.90
38582;DHT22;24349;53.720;10.014;2022-10-16T18:03:03;13.10;99.90
38582;DHT22;24349;53.720;10.014;2022-10-16T18:05:30;13.00;99.90
38582;DHT22;24349;53.720;10.014;2022-10-16T18:08:00;12.90;99.90
38582;DHT22;24349;53.720;10.014;2022-10-16T18:34:56;12.60;99.90
38582;DHT22;24349;53.720;10.014;2022-10-16T18:41:07;12.80;99.90
38582;DHT22;24349;53.720;10.014;2022-10-16T18:47:02;12.70;99.90
38582;DHT22;24349;53.720;10.014;2022-10-16T18:50:15;12.70;99.90
38582;DHT22;24349;53.720;10.014;2022-10-16T18:52:49;12.70;99.90
38582;DHT22;24349;53.720;10.014;2022-10-16T18:56:06;12.60;99.90
38582;DHT22;24349;53.720;10.014;2022-10-16T18:58:38;12.50;99.90
38582;DHT22;24349;53.720;10.014;2022-10-16T19:01:30;12.50;99.90
38582;DHT22;24349;53.720;10.014;2022-10-16T19:04:10;12.40;99.90
38582;DHT22;24349;53.720;10.014;2022-10-16T19:06:46;12.20;99.90
38582;DHT22;24349;53.720;10.014;2022-10-16T19:37:55;11.90;99.90
38582;DHT22;24349;53.720;10.014;2022-10-16T19:43:40;11.70;99.90
38582;DHT22;24349;53.720;10.014;2022-10-16T20:03:48;11.50;99.90
38582;DHT22;24349;53.720;10.014;2022-10-16T20:07:07;11.60;99.90
38582;DHT22;24349;53.720;10.014;2022-10-16T20:09:41;11.50;99.90
38582;DHT22;24349;53.720;10.014;2022-10-16T20:16:07;11.60;99.90
38582;DHT22;24349;53.720;10.014;2022-10-16T20:18:52;11.60;99.90
38582;DHT22;24349;53.720;10.014;2022-10-16T20:21:46;11.60;99.90
38582;DHT22;24349;53.720;10.014;2022-10-16T20:34:58;11.30;99.90
38582;DHT22;24349;53.720;10.014;2022-10-16T20:37:27;11.40;99.90
38582;DHT22;24349;53.720;10.014;2022-10-16T20:39:57;11.50;99.90
38582;DHT22;24349;53.720;10.014;2022-10-16T20:43:16;11.50;99.90
38582;DHT22;24349;53.720;10.014;2022-10-16T20:45:47;11.60;99.90
38582;DHT22;24349;53.720;10.014;2022-10-16T20:48:31;11.60;99.90
38582;DHT22;24349;53.720;10.014;2022-10-16T20:51:34;11.50;99.90
38582;DHT22;24349;53.720;10.014;2022-10-16T20:54:13;11.50;99.90
38582;DHT22;24349;53.720;10.014;2022-10-16T20:56:50;11.40;99.90
38582;DHT22;24349;53.720;10.014;2022-10-16T20:59:30;11.40;99.90
38582;DHT22;24349;53.720;10.014;2022-10-16T21:02:12;11.40;99.90
38582;DHT22;24349;53.720;10.014;2022-10-16T21:04:41;11.40;99.90
38582;DHT22;24349;53.720;10.014;2022-10-16T21:07:13;11.50;99.90
38582;DHT22;24349;53.720;10.014;2022-10-16T21:13:15;11.30;99.90
38582;DHT22;24349;53.720;10.014;2022-10-16T21:15:46;11.20;99.90
38582;DHT22;24349;53.720;10.014;2022-10-16T21:18:24;11.20;99.90
38582;DHT22;24349;53.720;10.014;2022-10-16T21:21:49;11.10;99.90
38582;DHT22;24349;53.720;10.014;2022-10-16T21:24:49;11.10;99.90
38582;DHT22;24349;53.720;10.014;2022-10-16T21:27:56;11.10;99.90
38582;DHT22;24349;53.720;10.014;2022-10-16T21:30:25;11.20;99.90
38582;DHT22;24349;53.720;10.014;2022-10-16T21:33:08;11.20;99.90
38582;DHT22;24349;53.720;10.014;2022-10-16T21:35:43;11.20;99.90
38582;DHT22;24349;53.720;10.014;2022-10-16T21:38:31;11.20;99.90
38582;DHT22;24349;53.720;10.014;2022-10-16T21:41:00;11.20;99.90
38582;DHT22;24349;53.720;10.014;2022-10-16T21:43:39;11.30;99.90
38582;DHT22;24349;53.720;10.014;2022-10-16T21:46:09;11.30;99.90
38582;DHT22;24349;53.720;10.014;2022-10-16T21:48:53;11.40;99.90
38582;DHT22;24349;53.720;10.014;2022-10-16T21:51:27;11.40;99.90
38582;DHT22;24349;53.720;10.014;2022-10-16T21:54:02;11.40;99.90
38582;DHT22;24349;53.720;10.014;2022-10-16T21:56:28;11.40;99.90
38582;DHT22;24349;53.720;10.014;2022-10-16T21:58:56;11.40;99.90
38582;DHT22;24349;53.720;10.014;2022-10-16T22:01:30;11.40;99.90
38582;DHT22;24349;53.720;10.014;2022-10-16T22:04:16;11.40;99.90
38582;DHT22;24349;53.720;10.014;2022-10-16T22:06:46;11.30;99.90
38582;DHT22;24349;53.720;10.014;2022-10-16T22:09:22;11.50;99.90
38582;DHT22;24349;53.720;10.014;2022-10-16T22:11:53;11.50;99.90
38582;DHT22;24349;53.720;10.014;2022-10-16T22:14:24;11.60;99.90
38582;DHT22;24349;53.720;10.014;2022-10-16T22:16:58;11.70;99.90
38582;DHT22;24349;53.720;10.014;2022-10-16T22:19:23;11.70;99.90
38582;DHT22;24349;53.720;10.014;2022-10-16T22:21:52;11.70;99.90
38582;DHT22;24349;53.720;10.014;2022-10-16T22:24:22;11.60;99.90
38582;DHT22;24349;53.720;10.014;2022-10-16T22:26:48;11.60;99.90
38582;DHT22;24349;53.720;10.014;2022-10-16T22:29:16;11.50;99.90
38582;DHT22;24349;53.720;10.014;2022-10-16T22:31:49;11.40;99.90
38582;DHT22;24349;53.720;10.014;2022-10-16T22:34:23;11.60;99.90
38582;DHT22;24349;53.720;10.014;2022-10-16T22:36:53;11.50;99.90
38582;DHT22;24349;53.720;10.014;2022-10-16T22:39:19;11.50;99.90
38582;DHT22;24349;53.720;10.014;2022-10-16T22:41:47;11.50;99.90
38582;DHT22;24349;53.720;10.014;2022-10-16T22:44:18;11.60;99.90
38582;DHT22;24349;53.720;10.014;2022-10-16T22:46:54;11.60;99.90
38582;DHT22;24349;53.720;10.014;2022-10-16T22:49:20;11.60;99.90
38582;DHT22;24349;53.720;10.014;2022-10-16T22:52:02;11.60;99.90
38582;DHT22;24349;53.720;10.014;2022-10-16T22:54:37;11.70;99.90
38582;DHT22;24349;53.720;10.014;2022-10-16T22:57:07;11.80;99.90
38582;DHT22;24349;53.720;10.014;2022-10-16T22:59:40;11.80;99.90
38582;DHT22;24349;53.720;10.014;2022-10-16T23:02:05;11.80;99.90
38582;DHT22;24349;53.720;10.014;2022-10-16T23:04:34;11.90;99.90
38582;DHT22;24349;53.720;10.014;2022-10-16T23:07:14;11.90;99.90
38582;DHT22;24349;53.720;10.014;2022-10-16T23:09:48;11.90;99.90
38582;DHT22;24349;53.720;10.014;2022-10-16T23:12:18;11.90;99.90
38582;DHT22;24349;53.720;10.014;2022-10-16T23:14:54;11.90;99.90
38582;DHT22;24349;53.720;10.014;2022-10-16T23:17:38;11.80;99.90
38582;DHT22;24349;53.720;10.014;2022-10-16T23:20:05;11.70;99.90
38582;DHT22;24349;53.720;10.014;2022-10-16T23:22:32;11.80;99.90
38582;DHT22;24349;53.720;10.014;2022-10-16T23:25:00;11.90;99.90
38582;DHT22;24349;53.720;10.014;2022-10-16T23:27:34;11.80;99.90
38582;DHT22;24349;53.720;10.014;2022-10-16T23:30:13;11.90;99.90
38582;DHT22;24349;53.720;10.014;2022-10-16T23:32:40;11.90;99.90
38582;DHT22;24349;53.720;10.014;2022-10-16T23:35:10;12.00;99.90
38582;DHT22;24349;53.720;10.014;2022-10-16T23:37:38;12.00;99.90
38582;DHT22;24349;53.720;10.014;2022-10-16T23:40:05;12.10;99.90
38582;DHT22;24349;53.720;10.014;2022-10-16T23:42:31;12.00;99.90
38582;DHT22;24349;53.720;10.014;2022-10-16T23:44:59;12.10;99.90
38582;DHT22;24349;53.720;10.014;2022-10-16T23:47:30;11.90;99.90
38582;DHT22;24349;53.720;10.014;2022-10-16T23:50:04;11.90;99.90
38582;DHT22;24349;53.720;10.014;2022-10-16T23:53:10;12.00;99.90
38582;DHT22;24349;53.720;10.014;2022-10-16T23:55:38;12.00;99.90
38582;DHT22;24349;53.720;10.014;2022-10-16T23:58:05;12.00;99.90
